createdAt,value
2023-04-16T00:01:36.999Z,97109.91
2023-04-16T00:04:03.721Z,97112.63
2023-04-16T00:06:30.290Z,97109.06
2023-04-16T00:08:56.628Z,97113.78
2023-04-16T00:11:23.041Z,97117.59
2023-04-16T00:13:49.418Z,97122.00
2023-04-16T00:16:15.883Z,97110.59
2023-04-16T00:18:42.356Z,97119.66
2023-04-16T00:21:08.755Z,97112.78
2023-04-16T00:23:35.186Z,97116.03
2023-04-16T00:26:01.596Z,97117.50
2023-04-16T00:28:27.968Z,97105.88
2023-04-16T00:30:54.364Z,97119.31
2023-04-16T00:33:20.864Z,97114.88
2023-04-16T00:35:47.292Z,97108.91
2023-04-16T00:38:13.690Z,97115.88
2023-04-16T00:40:40.058Z,97109.81
2023-04-16T00:43:06.462Z,97115.59
2023-04-16T00:45:32.866Z,97114.22
2023-04-16T00:48:00.529Z,97108.16
2023-04-16T00:50:27.138Z,97107.13
2023-04-16T00:52:53.712Z,97113.56
2023-04-16T00:55:20.070Z,97110.38
2023-04-16T00:57:46.465Z,97118.81
2023-04-16T01:00:12.827Z,97118.53
2023-04-16T01:02:39.334Z,97120.31
2023-04-16T01:05:05.806Z,97116.22
2023-04-16T01:07:32.168Z,97110.31
2023-04-16T01:09:58.537Z,97112.75
2023-04-16T01:12:25.005Z,97113.38
2023-04-16T01:14:51.376Z,97113.50
2023-04-16T01:17:17.773Z,97121.84
2023-04-16T01:19:44.191Z,97114.13
2023-04-16T01:22:10.556Z,97114.13
2023-04-16T01:24:36.973Z,97122.44
2023-04-16T01:27:03.370Z,97121.19
2023-04-16T01:29:29.760Z,97118.00
2023-04-16T01:31:56.138Z,97112.41
2023-04-16T01:34:22.573Z,97117.81
2023-04-16T01:36:48.970Z,97121.47
2023-04-16T01:39:15.353Z,97127.00
2023-04-16T01:41:41.883Z,97129.25
2023-04-16T01:44:08.272Z,97131.94
2023-04-16T01:46:34.673Z,97139.25
2023-04-16T01:49:01.104Z,97134.75
2023-04-16T01:51:27.445Z,97139.16
2023-04-16T01:53:53.850Z,97144.81
2023-04-16T01:56:20.242Z,97138.84
2023-04-16T01:58:46.641Z,97138.91
2023-04-16T02:01:13.048Z,97138.25
2023-04-16T02:03:39.677Z,97145.94
2023-04-16T02:06:06.211Z,97143.22
2023-04-16T02:08:32.620Z,97140.78
2023-04-16T02:10:59.024Z,97138.44
2023-04-16T02:13:27.184Z,97140.06
2023-04-16T02:15:53.589Z,97141.03
2023-04-16T02:18:20.028Z,97140.00
2023-04-16T02:20:46.416Z,97136.88
2023-04-16T02:23:12.839Z,97146.97
2023-04-16T02:25:39.205Z,97142.16
2023-04-16T02:28:05.594Z,97138.63
2023-04-16T02:30:31.967Z,97143.72
2023-04-16T02:32:58.575Z,97143.19
2023-04-16T02:35:24.947Z,97148.16
2023-04-16T02:37:51.307Z,97144.63
2023-04-16T02:40:17.671Z,97146.50
2023-04-16T02:42:44.024Z,97151.09
2023-04-16T02:45:10.363Z,97149.38
2023-04-16T02:47:36.801Z,97141.94
2023-04-16T02:50:03.177Z,97134.31
2023-04-16T02:52:29.559Z,97138.63
2023-04-16T02:54:55.956Z,97135.09
2023-04-16T02:57:22.335Z,97134.81
2023-04-16T02:59:48.777Z,97132.38
2023-04-16T03:02:15.189Z,97138.13
2023-04-16T03:04:41.744Z,97138.41
2023-04-16T03:07:08.244Z,97142.84
2023-04-16T03:09:34.683Z,97144.03
2023-04-16T03:12:01.059Z,97146.31
2023-04-16T03:14:27.446Z,97139.16
2023-04-16T03:16:53.832Z,97152.38
2023-04-16T03:19:20.209Z,97151.84
2023-04-16T03:21:46.581Z,97146.44
2023-04-16T03:24:12.981Z,97138.94
2023-04-16T03:26:39.334Z,97141.91
2023-04-16T03:29:05.700Z,97136.16
2023-04-16T03:31:32.162Z,97150.50
2023-04-16T03:33:58.540Z,97133.59
2023-04-16T03:36:24.904Z,97145.06
2023-04-16T03:38:51.323Z,97136.75
2023-04-16T03:41:17.686Z,97152.84
2023-04-16T03:43:44.056Z,97148.84
2023-04-16T03:46:10.489Z,97140.84
2023-04-16T03:48:36.940Z,97142.81
2023-04-16T03:51:03.332Z,97132.97
2023-04-16T03:53:29.721Z,97139.22
2023-04-16T03:55:56.181Z,97134.41
2023-04-16T03:58:22.564Z,97144.81
2023-04-16T04:00:48.934Z,97144.44
2023-04-16T04:03:15.445Z,97135.25
2023-04-16T04:05:41.995Z,97139.41
2023-04-16T04:08:08.372Z,97139.88
2023-04-16T04:10:34.743Z,97136.19
2023-04-16T04:13:01.176Z,97140.06
2023-04-16T04:15:27.555Z,97142.72
2023-04-16T04:17:54.001Z,97135.56
2023-04-16T04:20:20.462Z,97132.84
2023-04-16T04:22:46.877Z,97139.41
2023-04-16T04:25:13.308Z,97140.66
2023-04-16T04:27:39.660Z,97149.69
2023-04-16T04:30:06.033Z,97143.41
2023-04-16T04:32:32.469Z,97152.84
2023-04-16T04:34:58.929Z,97147.34
2023-04-16T04:37:25.298Z,97147.56
2023-04-16T04:39:51.688Z,97149.41
2023-04-16T04:42:18.087Z,97159.94
2023-04-16T04:44:44.498Z,97153.84
2023-04-16T04:47:10.890Z,97145.91
2023-04-16T04:49:37.288Z,97150.19
2023-04-16T04:52:03.728Z,97156.88
2023-04-16T04:54:30.098Z,97153.22
2023-04-16T04:56:56.489Z,97151.00
2023-04-16T04:59:22.852Z,97155.31
2023-04-16T05:01:49.276Z,97158.63
2023-04-16T05:04:15.733Z,97164.28
2023-04-16T05:06:42.277Z,97164.59
2023-04-16T05:09:08.810Z,97164.91
2023-04-16T05:11:35.447Z,97164.03
2023-04-16T05:14:01.805Z,97165.03
2023-04-16T05:16:28.232Z,97164.13
2023-04-16T05:18:54.642Z,97167.59
2023-04-16T05:21:21.006Z,97160.44
2023-04-16T05:23:47.381Z,97159.69
2023-04-16T05:26:13.891Z,97163.75
2023-04-16T05:28:40.280Z,97168.19
2023-04-16T05:31:06.649Z,97173.97
2023-04-16T05:33:33.080Z,97168.81
2023-04-16T05:35:59.470Z,97170.94
2023-04-16T05:38:25.920Z,97171.47
2023-04-16T05:40:52.487Z,97166.47
2023-04-16T05:43:18.851Z,97168.03
2023-04-16T05:45:45.240Z,97166.00
2023-04-16T05:48:11.635Z,97172.66
2023-04-16T05:50:38.070Z,97165.44
2023-04-16T05:53:04.465Z,97166.41
2023-04-16T05:55:30.854Z,97163.88
2023-04-16T05:57:57.418Z,97164.19
2023-04-16T06:00:23.814Z,97171.50
2023-04-16T06:02:50.365Z,97165.44
2023-04-16T06:05:16.975Z,97170.06
2023-04-16T06:07:43.437Z,97174.03
2023-04-16T06:10:09.865Z,97173.69
2023-04-16T06:12:36.296Z,97172.59
2023-04-16T06:15:02.874Z,97175.50
2023-04-16T06:17:29.282Z,97175.94
2023-04-16T06:19:55.691Z,97176.69
2023-04-16T06:22:22.223Z,97179.09
2023-04-16T06:24:48.618Z,97179.53
2023-04-16T06:27:15.092Z,97166.41
2023-04-16T06:29:42.014Z,97178.56
2023-04-16T06:32:08.582Z,97180.19
2023-04-16T06:34:35.015Z,97174.25
2023-04-16T06:37:01.403Z,97167.63
2023-04-16T06:39:27.787Z,97162.06
2023-04-16T06:41:54.164Z,97168.13
2023-04-16T06:44:20.539Z,97163.03
2023-04-16T06:46:46.931Z,97165.97
2023-04-16T06:49:13.391Z,97166.00
2023-04-16T06:51:39.778Z,97175.72
2023-04-16T06:54:06.199Z,97175.84
2023-04-16T06:56:32.574Z,97175.75
2023-04-16T06:58:58.944Z,97171.34
2023-04-16T07:01:25.418Z,97175.66
2023-04-16T07:03:52.076Z,97180.06
2023-04-16T07:06:18.740Z,97180.22
2023-04-16T07:08:45.108Z,97173.13
2023-04-16T07:11:11.731Z,97172.28
2023-04-16T07:13:38.175Z,97183.19
2023-04-16T07:16:04.905Z,97186.25
2023-04-16T07:18:31.321Z,97189.38
2023-04-16T07:20:57.755Z,97189.38
2023-04-16T07:23:24.133Z,97183.03
2023-04-16T07:25:50.544Z,97183.72
2023-04-16T07:28:17.008Z,97187.50
2023-04-16T07:30:43.724Z,97179.84
2023-04-16T07:33:10.153Z,97176.63
2023-04-16T07:35:36.608Z,97180.38
2023-04-16T07:38:03.040Z,97178.06
2023-04-16T07:40:29.646Z,97175.13
2023-04-16T07:42:56.063Z,97176.88
2023-04-16T07:45:22.598Z,97176.28
2023-04-16T07:47:49.105Z,97179.81
2023-04-16T07:50:15.778Z,97178.81
2023-04-16T07:52:42.233Z,97184.47
2023-04-16T07:55:08.681Z,97186.38
2023-04-16T07:57:35.244Z,97193.47
2023-04-16T08:00:01.892Z,97189.97
2023-04-16T08:02:28.710Z,97187.41
2023-04-16T08:04:55.584Z,97192.81
2023-04-16T08:07:22.060Z,97193.63
2023-04-16T08:09:48.459Z,97190.75
2023-04-16T08:12:14.827Z,97193.94
2023-04-16T08:14:41.303Z,97188.78
2023-04-16T08:17:07.734Z,97195.16
2023-04-16T08:19:34.135Z,97193.41
2023-04-16T08:22:00.598Z,97195.50
2023-04-16T08:24:27.077Z,97199.06
2023-04-16T08:26:53.503Z,97209.03
2023-04-16T08:29:19.958Z,97209.94
2023-04-16T08:31:46.420Z,97213.16
2023-04-16T08:34:12.945Z,97205.16
2023-04-16T08:36:39.359Z,97213.75
2023-04-16T08:39:05.775Z,97220.28
2023-04-16T08:41:32.176Z,97223.06
2023-04-16T08:43:58.687Z,97223.59
2023-04-16T08:46:25.077Z,97229.63
2023-04-16T08:48:51.466Z,97223.09
2023-04-16T08:51:17.912Z,97232.63
2023-04-16T08:53:44.297Z,97222.13
2023-04-16T08:56:10.721Z,97227.94
2023-04-16T08:58:37.114Z,97228.59
2023-04-16T09:01:03.526Z,97235.00
2023-04-16T09:03:30.035Z,97234.75
2023-04-16T09:05:56.525Z,97228.53
2023-04-16T09:08:22.965Z,97247.31
2023-04-16T09:10:49.357Z,97238.75
2023-04-16T09:13:15.775Z,97237.06
2023-04-16T09:15:42.155Z,97241.78
2023-04-16T09:18:08.541Z,97235.44
2023-04-16T09:20:34.958Z,97246.28
2023-04-16T09:23:01.393Z,97244.25
2023-04-16T09:25:27.802Z,97240.75
2023-04-16T09:27:54.171Z,97249.22
2023-04-16T09:30:20.575Z,97241.06
2023-04-16T09:32:47.012Z,97248.00
2023-04-16T09:35:13.410Z,97233.25
2023-04-16T09:37:39.885Z,97248.41
2023-04-16T09:40:06.293Z,97246.06
2023-04-16T09:42:32.683Z,97250.88
2023-04-16T09:45:00.816Z,97251.25
2023-04-16T09:47:28.752Z,97248.63
2023-04-16T09:49:55.157Z,97257.66
2023-04-16T09:52:21.553Z,97251.97
2023-04-16T09:54:48.023Z,97258.94
2023-04-16T09:57:14.434Z,97258.69
2023-04-16T09:59:40.811Z,97249.25
2023-04-16T10:02:14.514Z,97254.53
2023-04-16T10:04:42.777Z,97249.00
2023-04-16T10:07:09.278Z,97242.16
2023-04-16T10:09:35.660Z,97258.81
2023-04-16T10:12:02.054Z,97257.34
2023-04-16T10:14:28.430Z,97250.56
2023-04-16T10:16:54.908Z,97254.88
2023-04-16T10:19:22.492Z,97252.22
2023-04-16T10:21:48.985Z,97254.34
2023-04-16T10:24:15.366Z,97255.84
2023-04-16T10:26:41.790Z,97256.06
2023-04-16T10:29:08.243Z,97256.13
2023-04-16T10:31:34.699Z,97259.38
2023-04-16T10:34:01.194Z,97254.41
2023-04-16T10:36:27.679Z,97253.41
2023-04-16T10:38:54.077Z,97260.81
2023-04-16T10:41:20.453Z,97259.31
2023-04-16T10:43:46.986Z,97257.03
2023-04-16T10:46:13.397Z,97263.00
2023-04-16T10:48:49.649Z,97261.44
2023-04-16T10:51:17.308Z,97257.53
2023-04-16T10:53:43.727Z,97262.59
2023-04-16T10:56:10.129Z,97263.06
2023-04-16T10:58:36.537Z,97261.72
2023-04-16T11:01:02.903Z,97258.72
2023-04-16T11:03:29.496Z,97261.97
2023-04-16T11:05:55.970Z,97257.97
2023-04-16T11:08:23.389Z,97261.88
2023-04-16T11:10:51.106Z,97265.34
2023-04-16T11:13:17.696Z,97269.56
2023-04-16T11:15:44.171Z,97262.50
2023-04-16T11:18:10.676Z,97269.22
2023-04-16T11:20:37.075Z,97270.31
2023-04-16T11:23:03.485Z,97270.22
2023-04-16T11:25:30.012Z,97273.25
2023-04-16T11:27:56.443Z,97271.47
2023-04-16T11:30:22.824Z,97266.53
2023-04-16T11:32:49.268Z,97266.63
2023-04-16T11:35:15.700Z,97264.06
2023-04-16T11:37:42.135Z,97266.81
2023-04-16T11:40:08.521Z,97265.25
2023-04-16T11:42:34.999Z,97273.09
2023-04-16T11:45:01.537Z,97258.16
2023-04-16T11:47:28.052Z,97261.47
2023-04-16T11:49:54.472Z,97262.94
2023-04-16T11:52:20.907Z,97264.56
2023-04-16T11:54:47.356Z,97263.75
2023-04-16T11:57:13.923Z,97259.88
2023-04-16T12:00:02.012Z,97261.38
2023-04-16T12:02:26.809Z,97259.16
2023-04-16T12:04:53.282Z,97252.44
2023-04-16T12:07:19.759Z,97259.88
2023-04-16T12:09:46.157Z,97259.78
2023-04-16T12:12:12.584Z,97247.44
2023-04-16T12:14:38.969Z,97254.31
2023-04-16T12:17:05.425Z,97252.81
2023-04-16T12:19:31.825Z,97250.56
2023-04-16T12:21:58.197Z,97255.72
2023-04-16T12:24:24.587Z,97260.16
2023-04-16T12:26:51.029Z,97247.25
2023-04-16T12:29:17.540Z,97256.06
2023-04-16T12:31:43.949Z,97252.59
2023-04-16T12:34:10.409Z,97261.34
2023-04-16T12:36:36.827Z,97258.31
2023-04-16T12:39:03.192Z,97253.91
2023-04-16T12:41:29.568Z,97252.19
2023-04-16T12:43:56.043Z,97251.63
2023-04-16T12:46:22.642Z,97254.31
2023-04-16T12:48:49.180Z,97253.19
2023-04-16T12:51:15.550Z,97255.94
2023-04-16T12:53:42.037Z,97253.00
2023-04-16T12:56:08.581Z,97257.25
2023-04-16T12:58:35.012Z,97251.75
2023-04-16T13:01:01.374Z,97253.59
2023-04-16T13:03:27.958Z,97250.91
2023-04-16T13:05:54.413Z,97250.09
2023-04-16T13:08:20.795Z,97250.66
2023-04-16T13:10:47.240Z,97252.78
2023-04-16T13:13:13.605Z,97249.81
2023-04-16T13:15:40.066Z,97251.28
2023-04-16T13:18:06.650Z,97254.22
2023-04-16T13:20:33.067Z,97254.38
2023-04-16T13:22:59.473Z,97245.66
2023-04-16T13:25:26.110Z,97245.66
2023-04-16T13:27:52.528Z,97252.66
2023-04-16T13:30:18.931Z,97248.69
2023-04-16T13:32:45.370Z,97243.19
2023-04-16T13:35:11.847Z,97237.84
2023-04-16T13:37:38.249Z,97239.63
2023-04-16T13:40:04.760Z,97235.00
2023-04-16T13:42:31.275Z,97239.16
2023-04-16T13:44:57.660Z,97230.69
2023-04-16T13:47:24.132Z,97223.19
2023-04-16T13:49:50.696Z,97217.09
2023-04-16T13:52:17.087Z,97228.47
2023-04-16T13:54:43.484Z,97217.63
2023-04-16T13:57:09.965Z,97222.25
2023-04-16T13:59:36.388Z,97217.59
2023-04-16T14:02:02.877Z,97218.13
2023-04-16T14:04:29.567Z,97223.53
2023-04-16T14:06:56.026Z,97222.28
2023-04-16T14:09:23.836Z,97229.44
2023-04-16T14:11:50.515Z,97222.47
2023-04-16T14:14:16.888Z,97221.06
2023-04-16T14:16:43.420Z,97223.72
2023-04-16T14:19:10.222Z,97218.56
2023-04-16T14:21:36.810Z,97216.63
2023-04-16T14:24:03.424Z,97221.22
2023-04-16T14:26:29.846Z,97213.84
2023-04-16T14:28:56.367Z,97214.66
2023-04-16T14:31:22.923Z,97204.66
2023-04-16T14:33:49.351Z,97208.53
2023-04-16T14:36:15.834Z,97209.22
2023-04-16T14:38:42.283Z,97207.00
2023-04-16T14:41:08.801Z,97209.34
2023-04-16T14:43:35.201Z,97210.47
2023-04-16T14:46:01.715Z,97197.78
2023-04-16T14:48:28.170Z,97196.16
2023-04-16T14:50:54.618Z,97199.28
2023-04-16T14:53:21.097Z,97199.94
2023-04-16T14:55:47.583Z,97202.06
2023-04-16T14:58:14.149Z,97206.72
2023-04-16T15:00:40.530Z,97208.78
2023-04-16T15:03:07.211Z,97203.13
2023-04-16T15:05:34.003Z,97201.28
2023-04-16T15:08:00.393Z,97189.09
2023-04-16T15:10:26.815Z,97194.81
2023-04-16T15:12:53.203Z,97187.84
2023-04-16T15:15:19.649Z,97195.81
2023-04-16T15:17:46.105Z,97193.34
2023-04-16T15:20:12.697Z,97193.22
2023-04-16T15:22:39.632Z,97198.31
2023-04-16T15:25:06.352Z,97210.06
2023-04-16T15:27:32.834Z,97196.06
2023-04-16T15:29:59.267Z,97195.78
2023-04-16T15:32:25.735Z,97194.78
2023-04-16T15:34:52.181Z,97202.31
2023-04-16T15:37:18.713Z,97199.00
2023-04-16T15:39:45.139Z,97202.81
2023-04-16T15:42:11.580Z,97194.28
2023-04-16T15:44:38.051Z,97204.00
2023-04-16T15:47:04.595Z,97205.59
2023-04-16T15:49:30.989Z,97203.22
2023-04-16T15:51:57.583Z,97209.72
2023-04-16T15:54:24.039Z,97223.66
2023-04-16T15:56:50.450Z,97212.47
2023-04-16T15:59:16.830Z,97210.84
2023-04-16T16:01:43.233Z,97205.03
2023-04-16T16:04:10.545Z,97208.00
2023-04-16T16:06:37.098Z,97210.47
2023-04-16T16:09:03.468Z,97217.63
2023-04-16T16:11:30.010Z,97217.91
2023-04-16T16:13:56.396Z,97216.06
2023-04-16T16:16:22.866Z,97213.19
2023-04-16T16:18:49.274Z,97215.41
2023-04-16T16:21:15.944Z,97221.53
2023-04-16T16:23:42.517Z,97215.91
2023-04-16T16:26:09.070Z,97210.72
2023-04-16T16:28:35.520Z,97207.97
2023-04-16T16:31:02.075Z,97213.09
2023-04-16T16:33:28.765Z,97216.97
2023-04-16T16:35:55.247Z,97220.25
2023-04-16T16:38:21.955Z,97225.03
2023-04-16T16:40:48.429Z,97221.78
2023-04-16T16:43:15.047Z,97218.47
2023-04-16T16:45:41.504Z,97217.22
2023-04-16T16:48:07.942Z,97228.00
2023-04-16T16:50:34.401Z,97230.97
2023-04-16T16:53:00.865Z,97232.25
2023-04-16T16:55:27.277Z,97235.72
2023-04-16T16:57:53.762Z,97237.91
2023-04-16T17:00:20.148Z,97232.22
2023-04-16T17:02:48.141Z,97233.97
2023-04-16T17:05:14.649Z,97238.63
2023-04-16T17:07:41.907Z,97236.38
2023-04-16T17:10:08.294Z,97230.03
2023-04-16T17:12:34.664Z,97239.81
2023-04-16T17:15:01.032Z,97239.69
2023-04-16T17:17:27.498Z,97234.69
2023-04-16T17:19:54.018Z,97238.03
2023-04-16T17:22:20.921Z,97237.59
2023-04-16T17:24:47.425Z,97235.28
2023-04-16T17:27:15.164Z,97244.56
2023-04-16T17:29:42.076Z,97238.88
2023-04-16T17:32:08.674Z,97252.56
2023-04-16T17:34:35.252Z,97248.88
2023-04-16T17:37:01.727Z,97252.47
2023-04-16T17:39:30.778Z,97251.44
2023-04-16T17:41:57.311Z,97252.59
2023-04-16T17:44:23.735Z,97256.31
2023-04-16T17:46:50.167Z,97247.72
2023-04-16T17:49:16.619Z,97254.34
2023-04-16T17:51:43.076Z,97246.88
2023-04-16T17:54:09.729Z,97250.16
2023-04-16T17:56:36.600Z,97257.00
2023-04-16T17:59:03.100Z,97262.22
2023-04-16T18:01:29.537Z,97259.16
2023-04-16T18:03:56.213Z,97251.72
2023-04-16T18:06:22.764Z,97253.66
2023-04-16T18:08:49.170Z,97260.41
2023-04-16T18:11:15.557Z,97274.69
2023-04-16T18:13:41.985Z,97260.50
2023-04-16T18:16:08.409Z,97272.16
2023-04-16T18:18:37.393Z,97276.34
2023-04-16T18:21:03.787Z,97264.50
2023-04-16T18:23:30.197Z,97274.72
2023-04-16T18:25:56.633Z,97269.41
2023-04-16T18:28:23.013Z,97281.25
2023-04-16T18:30:50.938Z,97276.50
2023-04-16T18:35:46.926Z,97276.75
2023-04-16T18:38:13.373Z,97275.50
2023-04-16T18:40:39.940Z,97279.75
2023-04-16T18:43:06.437Z,97275.38
2023-04-16T18:45:34.233Z,97267.75
2023-04-16T18:48:01.098Z,97276.44
2023-04-16T18:50:27.502Z,97277.59
2023-04-16T18:52:58.829Z,97275.63
2023-04-16T18:55:34.740Z,97274.94
2023-04-16T18:58:04.117Z,97281.22
2023-04-16T19:00:30.780Z,97272.53
2023-04-16T19:02:59.648Z,97276.09
2023-04-16T19:05:36.709Z,97276.59
2023-04-16T19:08:06.142Z,97274.41
2023-04-16T19:10:35.205Z,97272.75
2023-04-16T19:13:01.623Z,97258.81
2023-04-16T19:15:32.127Z,97263.63
2023-04-16T19:18:03.809Z,97265.00
2023-04-16T19:20:34.301Z,97259.41
2023-04-16T19:23:03.947Z,97255.59
2023-04-16T19:25:33.137Z,97263.25
2023-04-16T19:30:40.677Z,97266.88
2023-04-16T19:33:07.134Z,97271.31
2023-04-16T19:35:33.717Z,97274.31
2023-04-16T19:38:00.128Z,97269.88
2023-04-16T19:40:30.257Z,97274.81
2023-04-16T19:42:59.954Z,97275.38
2023-04-16T19:45:26.523Z,97273.97
2023-04-16T19:47:53.038Z,97271.38
2023-04-16T19:50:22.489Z,97275.16
2023-04-16T19:52:49.146Z,97277.13
2023-04-16T19:55:18.658Z,97276.31
2023-04-16T19:57:45.085Z,97275.69
2023-04-16T20:00:11.816Z,97280.38
2023-04-16T20:02:43.760Z,97278.25
2023-04-16T20:05:11.632Z,97280.03
2023-04-16T20:07:38.150Z,97288.38
2023-04-16T20:10:08.388Z,97279.38
2023-04-16T20:12:35.050Z,97278.00
2023-04-16T20:15:04.227Z,97280.97
2023-04-16T20:17:31.338Z,97282.31
2023-04-16T20:19:57.813Z,97286.41
2023-04-16T20:22:24.508Z,97285.13
2023-04-16T20:24:52.697Z,97283.47
2023-04-16T20:27:21.987Z,97283.72
2023-04-16T20:29:48.431Z,97281.59
2023-04-16T20:32:14.933Z,97283.09
2023-04-16T20:34:41.520Z,97283.16
2023-04-16T20:37:08.218Z,97282.28
2023-04-16T20:39:34.625Z,97273.31
2023-04-16T20:42:01.196Z,97282.22
2023-04-16T20:44:27.624Z,97289.47
2023-04-16T20:46:54.102Z,97284.25
2023-04-16T20:49:20.557Z,97281.84
2023-04-16T20:51:47.118Z,97286.47
2023-04-16T20:54:13.582Z,97283.91
2023-04-16T20:56:39.948Z,97285.06
2023-04-16T20:59:06.530Z,97274.91
2023-04-16T21:01:33.091Z,97269.53
2023-04-16T21:03:59.855Z,97266.97
2023-04-16T21:06:26.503Z,97252.00
2023-04-16T21:08:53.143Z,97256.16
2023-04-16T21:11:19.552Z,97262.47
2023-04-16T21:13:47.387Z,97259.69
2023-04-16T21:16:15.463Z,97260.72
2023-04-16T21:18:41.957Z,97252.22
2023-04-16T21:21:08.556Z,97258.19
2023-04-16T21:23:35.040Z,97260.94
2023-04-16T21:26:01.486Z,97260.03
2023-04-16T21:28:28.033Z,97263.84
2023-04-16T21:30:54.388Z,97257.88
2023-04-16T21:33:20.797Z,97258.44
2023-04-16T21:35:47.569Z,97254.97
2023-04-16T21:38:13.933Z,97261.34
2023-04-16T21:40:40.322Z,97246.75
2023-04-16T21:43:09.736Z,97245.06
2023-04-16T21:45:36.255Z,97239.13
2023-04-16T21:48:02.694Z,97243.97
2023-04-16T21:50:29.355Z,97245.56
2023-04-16T21:52:55.768Z,97241.31
2023-04-16T21:55:22.144Z,97236.25
2023-04-16T21:57:48.516Z,97235.34
2023-04-16T22:00:14.922Z,97225.53
2023-04-16T22:02:41.409Z,97230.34
2023-04-16T22:05:07.952Z,97223.56
2023-04-16T22:07:34.357Z,97230.34
2023-04-16T22:10:00.791Z,97225.22
2023-04-16T22:12:27.487Z,97223.28
2023-04-16T22:15:02.501Z,97221.06
2023-04-16T22:17:29.668Z,97221.66
2023-04-16T22:19:56.058Z,97218.91
2023-04-16T22:22:22.433Z,97214.44
2023-04-16T22:24:48.812Z,97217.19
2023-04-16T22:27:15.192Z,97210.31
2023-04-16T22:29:41.666Z,97207.91
2023-04-16T22:32:08.076Z,97206.34
2023-04-16T22:34:34.507Z,97202.50
2023-04-16T22:37:00.955Z,97197.03
2023-04-16T22:39:27.360Z,97198.38
2023-04-16T22:41:53.731Z,97193.00
2023-04-16T22:44:20.073Z,97195.41
2023-04-16T22:46:46.488Z,97191.31
2023-04-16T22:49:13.113Z,97188.66
2023-04-16T22:51:39.682Z,97188.25
2023-04-16T22:54:06.243Z,97177.81
2023-04-16T22:56:32.656Z,97181.09
2023-04-16T22:58:59.068Z,97175.72
2023-04-16T23:01:25.593Z,97187.25
2023-04-16T23:03:52.196Z,97186.41
2023-04-16T23:06:18.614Z,97175.66
2023-04-16T23:08:45.075Z,97175.41
2023-04-16T23:11:11.497Z,97169.81
2023-04-16T23:13:37.851Z,97169.56
2023-04-16T23:16:04.318Z,97158.38
2023-04-16T23:18:30.739Z,97157.66
2023-04-16T23:20:57.120Z,97156.03
2023-04-16T23:23:23.527Z,97156.50
2023-04-16T23:25:49.911Z,97151.34
2023-04-16T23:28:16.288Z,97152.69
2023-04-16T23:30:42.710Z,97147.88
2023-04-16T23:33:09.340Z,97154.00
2023-04-16T23:35:35.750Z,97155.72
2023-04-16T23:38:02.139Z,97161.91
2023-04-16T23:40:28.514Z,97161.25
2023-04-16T23:42:54.873Z,97165.03
2023-04-16T23:45:21.285Z,97164.22
2023-04-16T23:47:47.720Z,97171.50
2023-04-16T23:50:14.151Z,97167.75
2023-04-16T23:52:40.554Z,97166.44
2023-04-16T23:55:07.000Z,97161.13
2023-04-16T23:57:33.405Z,97166.44
2023-04-16T23:59:59.775Z,97162.72
